sensor_id;sensor_type;location;lat;lon;timestamp;P1;durP1;ratioP1;P2;durP2;ratioP2
20034;SDS011;10178;48.034;9.800;2024-03-02T00:02:42;4.65;;;4.00;;
20034;SDS011;10178;48.034;9.800;2024-03-02T00:05:16;4.88;;;4.22;;
20034;SDS011;10178;48.034;9.800;2024-03-02T00:07:47;4.93;;;4.10;;
20034;SDS011;10178;48.034;9.800;2024-03-02T00:10:19;5.28;;;4.22;;
20034;SDS011;10178;48.034;9.800;2024-03-02T00:12:48;5.22;;;4.57;;
20034;SDS011;10178;48.034;9.800;2024-03-02T00:17:42;5.28;;;4.20;;
20034;SDS011;10178;48.034;9.800;2024-03-02T00:20:09;7.13;;;4.20;;
20034;SDS011;10178;48.034;9.800;2024-03-02T00:22:35;5.13;;;4.03;;
20034;SDS011;10178;48.034;9.800;2024-03-02T00:25:02;5.80;;;4.70;;
20034;SDS011;10178;48.034;9.800;2024-03-02T00:27:29;7.40;;;4.47;;
20034;SDS011;10178;48.034;9.800;2024-03-02T00:29:54;4.60;;;4.20;;
20034;SDS011;10178;48.034;9.800;2024-03-02T00:32:20;5.53;;;4.13;;
20034;SDS011;10178;48.034;9.800;2024-03-02T00:34:46;4.78;;;3.95;;
20034;SDS011;10178;48.034;9.800;2024-03-02T00:37:12;4.60;;;4.05;;
20034;SDS011;10178;48.034;9.800;2024-03-02T00:39:38;4.80;;;4.05;;
20034;SDS011;10178;48.034;9.800;2024-03-02T00:42:05;21.67;;;7.28;;
20034;SDS011;10178;48.034;9.800;2024-03-02T00:44:30;11.75;;;8.57;;
20034;SDS011;10178;48.034;9.800;2024-03-02T00:47:00;4.80;;;4.10;;
20034;SDS011;10178;48.034;9.800;2024-03-02T00:49:26;6.25;;;4.68;;
20034;SDS011;10178;48.034;9.800;2024-03-02T00:51:53;8.93;;;4.53;;
20034;SDS011;10178;48.034;9.800;2024-03-02T00:54:20;5.07;;;3.97;;
20034;SDS011;10178;48.034;9.800;2024-03-02T00:56:48;5.85;;;4.55;;
20034;SDS011;10178;48.034;9.800;2024-03-02T00:59:14;5.93;;;4.43;;
20034;SDS011;10178;48.034;9.800;2024-03-02T01:01:40;7.38;;;4.78;;
20034;SDS011;10178;48.034;9.800;2024-03-02T01:04:07;6.57;;;5.00;;
20034;SDS011;10178;48.034;9.800;2024-03-02T01:06:32;6.50;;;4.82;;
20034;SDS011;10178;48.034;9.800;2024-03-02T01:08:58;7.05;;;5.00;;
20034;SDS011;10178;48.034;9.800;2024-03-02T01:11:24;5.72;;;4.78;;
20034;SDS011;10178;48.034;9.800;2024-03-02T01:13:50;6.43;;;5.18;;
20034;SDS011;10178;48.034;9.800;2024-03-02T01:16:16;6.50;;;4.85;;
20034;SDS011;10178;48.034;9.800;2024-03-02T01:18:42;5.25;;;4.50;;
20034;SDS011;10178;48.034;9.800;2024-03-02T01:21:08;5.53;;;4.18;;
20034;SDS011;10178;48.034;9.800;2024-03-02T01:23:34;5.43;;;4.70;;
20034;SDS011;10178;48.034;9.800;2024-03-02T01:26:00;5.63;;;4.55;;
20034;SDS011;10178;48.034;9.800;2024-03-02T01:28:25;4.80;;;3.92;;
20034;SDS011;10178;48.034;9.800;2024-03-02T01:30:51;4.95;;;4.22;;
20034;SDS011;10178;48.034;9.800;2024-03-02T01:33:17;5.28;;;4.40;;
20034;SDS011;10178;48.034;9.800;2024-03-02T01:35:44;6.30;;;4.90;;
20034;SDS011;10178;48.034;9.800;2024-03-02T01:38:09;6.47;;;5.07;;
20034;SDS011;10178;48.034;9.800;2024-03-02T01:40:36;6.32;;;4.90;;
20034;SDS011;10178;48.034;9.800;2024-03-02T01:43:03;5.72;;;4.55;;
20034;SDS011;10178;48.034;9.800;2024-03-02T01:45:29;6.45;;;4.60;;
20034;SDS011;10178;48.034;9.800;2024-03-02T01:47:55;6.15;;;4.70;;
20034;SDS011;10178;48.034;9.800;2024-03-02T01:50:27;6.82;;;5.07;;
20034;SDS011;10178;48.034;9.800;2024-03-02T01:52:54;9.10;;;6.72;;
20034;SDS011;10178;48.034;9.800;2024-03-02T01:55:20;8.02;;;5.97;;
20034;SDS011;10178;48.034;9.800;2024-03-02T01:57:46;6.43;;;5.05;;
20034;SDS011;10178;48.034;9.800;2024-03-02T02:00:13;9.10;;;5.95;;
20034;SDS011;10178;48.034;9.800;2024-03-02T02:02:39;6.45;;;5.10;;
20034;SDS011;10178;48.034;9.800;2024-03-02T02:05:05;5.50;;;4.55;;
20034;SDS011;10178;48.034;9.800;2024-03-02T02:07:31;7.25;;;4.93;;
20034;SDS011;10178;48.034;9.800;2024-03-02T02:09:57;6.38;;;5.05;;
20034;SDS011;10178;48.034;9.800;2024-03-02T02:12:23;8.20;;;4.75;;
20034;SDS011;10178;48.034;9.800;2024-03-02T02:14:48;5.65;;;4.85;;
20034;SDS011;10178;48.034;9.800;2024-03-02T02:17:15;6.55;;;4.70;;
20034;SDS011;10178;48.034;9.800;2024-03-02T02:19:41;6.72;;;4.82;;
20034;SDS011;10178;48.034;9.800;2024-03-02T02:22:08;5.72;;;4.75;;
20034;SDS011;10178;48.034;9.800;2024-03-02T02:24:34;6.72;;;5.05;;
20034;SDS011;10178;48.034;9.800;2024-03-02T02:27:00;7.35;;;5.03;;
20034;SDS011;10178;48.034;9.800;2024-03-02T02:29:25;5.95;;;5.22;;
20034;SDS011;10178;48.034;9.800;2024-03-02T02:31:51;5.55;;;4.68;;
20034;SDS011;10178;48.034;9.800;2024-03-02T02:34:16;5.97;;;4.97;;
20034;SDS011;10178;48.034;9.800;2024-03-02T02:36:42;5.97;;;4.80;;
20034;SDS011;10178;48.034;9.800;2024-03-02T02:39:09;6.57;;;5.20;;
20034;SDS011;10178;48.034;9.800;2024-03-02T02:41:38;6.27;;;5.00;;
20034;SDS011;10178;48.034;9.800;2024-03-02T02:44:04;9.83;;;5.13;;
20034;SDS011;10178;48.034;9.800;2024-03-02T02:46:30;5.50;;;4.80;;
20034;SDS011;10178;48.034;9.800;2024-03-02T02:48:55;6.38;;;5.18;;
20034;SDS011;10178;48.034;9.800;2024-03-02T02:51:21;5.97;;;4.75;;
20034;SDS011;10178;48.034;9.800;2024-03-02T02:53:47;5.82;;;4.72;;
20034;SDS011;10178;48.034;9.800;2024-03-02T02:56:12;6.67;;;4.80;;
20034;SDS011;10178;48.034;9.800;2024-03-02T02:58:39;19.17;;;7.68;;
20034;SDS011;10178;48.034;9.800;2024-03-02T03:01:06;6.15;;;5.00;;
20034;SDS011;10178;48.034;9.800;2024-03-02T03:03:32;5.75;;;4.80;;
20034;SDS011;10178;48.034;9.800;2024-03-02T03:05:58;5.53;;;4.90;;
20034;SDS011;10178;48.034;9.800;2024-03-02T03:08:24;6.75;;;4.95;;
20034;SDS011;10178;48.034;9.800;2024-03-02T03:10:49;5.72;;;4.82;;
20034;SDS011;10178;48.034;9.800;2024-03-02T03:13:15;5.85;;;4.75;;
20034;SDS011;10178;48.034;9.800;2024-03-02T03:15:41;7.18;;;5.22;;
20034;SDS011;10178;48.034;9.800;2024-03-02T03:18:06;5.72;;;4.97;;
20034;SDS011;10178;48.034;9.800;2024-03-02T03:20:32;6.20;;;5.32;;
20034;SDS011;10178;48.034;9.800;2024-03-02T03:22:58;6.13;;;4.82;;
20034;SDS011;10178;48.034;9.800;2024-03-02T03:25:24;6.35;;;5.05;;
20034;SDS011;10178;48.034;9.800;2024-03-02T03:27:50;6.13;;;4.88;;
20034;SDS011;10178;48.034;9.800;2024-03-02T03:30:18;7.40;;;4.97;;
20034;SDS011;10178;48.034;9.800;2024-03-02T03:32:44;5.85;;;4.80;;
20034;SDS011;10178;48.034;9.800;2024-03-02T03:35:10;5.55;;;4.38;;
20034;SDS011;10178;48.034;9.800;2024-03-02T03:37:37;5.00;;;4.50;;
20034;SDS011;10178;48.034;9.800;2024-03-02T03:40:03;5.18;;;4.55;;
20034;SDS011;10178;48.034;9.800;2024-03-02T03:42:34;5.30;;;4.65;;
20034;SDS011;10178;48.034;9.800;2024-03-02T03:45:00;5.97;;;4.87;;
20034;SDS011;10178;48.034;9.800;2024-03-02T03:47:26;5.40;;;4.85;;
20034;SDS011;10178;48.034;9.800;2024-03-02T03:49:52;5.13;;;4.63;;
20034;SDS011;10178;48.034;9.800;2024-03-02T03:52:17;5.97;;;5.00;;
20034;SDS011;10178;48.034;9.800;2024-03-02T03:54:43;90.05;;;6.78;;
20034;SDS011;10178;48.034;9.800;2024-03-02T03:57:09;8.07;;;4.43;;
20034;SDS011;10178;48.034;9.800;2024-03-02T03:59:35;4.97;;;4.20;;
20034;SDS011;10178;48.034;9.800;2024-03-02T04:02:02;6.75;;;4.97;;
20034;SDS011;10178;48.034;9.800;2024-03-02T04:04:28;5.82;;;4.93;;
20034;SDS011;10178;48.034;9.800;2024-03-02T04:06:54;5.10;;;4.45;;
20034;SDS011;10178;48.034;9.800;2024-03-02T04:09:19;4.65;;;4.20;;
20034;SDS011;10178;48.034;9.800;2024-03-02T04:11:45;4.45;;;4.05;;
20034;SDS011;10178;48.034;9.800;2024-03-02T04:14:11;20.27;;;5.03;;
20034;SDS011;10178;48.034;9.800;2024-03-02T04:16:37;25.40;;;5.50;;
20034;SDS011;10178;48.034;9.800;2024-03-02T04:19:04;10.67;;;5.60;;
20034;SDS011;10178;48.034;9.800;2024-03-02T04:21:30;20.45;;;7.25;;
20034;SDS011;10178;48.034;9.800;2024-03-02T04:23:55;13.37;;;8.57;;
20034;SDS011;10178;48.034;9.800;2024-03-02T04:26:23;10.63;;;8.65;;
20034;SDS011;10178;48.034;9.800;2024-03-02T04:28:51;11.38;;;9.07;;
20034;SDS011;10178;48.034;9.800;2024-03-02T04:31:20;14.67;;;10.60;;
20034;SDS011;10178;48.034;9.800;2024-03-02T04:33:46;16.33;;;10.87;;
20034;SDS011;10178;48.034;9.800;2024-03-02T04:36:11;14.53;;;11.30;;
20034;SDS011;10178;48.034;9.800;2024-03-02T04:38:37;10.83;;;8.50;;
20034;SDS011;10178;48.034;9.800;2024-03-02T04:41:04;9.77;;;7.70;;
20034;SDS011;10178;48.034;9.800;2024-03-02T04:43:31;7.27;;;6.50;;
20034;SDS011;10178;48.034;9.800;2024-03-02T04:45:57;7.57;;;6.18;;
20034;SDS011;10178;48.034;9.800;2024-03-02T04:48:23;6.63;;;5.80;;
20034;SDS011;10178;48.034;9.800;2024-03-02T04:50:49;7.57;;;6.38;;
20034;SDS011;10178;48.034;9.800;2024-03-02T04:53:15;5.38;;;4.85;;
20034;SDS011;10178;48.034;9.800;2024-03-02T04:55:40;5.78;;;5.10;;
20034;SDS011;10178;48.034;9.800;2024-03-02T04:58:06;6.40;;;5.03;;
20034;SDS011;10178;48.034;9.800;2024-03-02T05:00:32;4.63;;;4.22;;
20034;SDS011;10178;48.034;9.800;2024-03-02T05:02:58;4.80;;;4.30;;
20034;SDS011;10178;48.034;9.800;2024-03-02T05:05:23;6.45;;;4.72;;
20034;SDS011;10178;48.034;9.800;2024-03-02T05:07:49;4.55;;;4.03;;
20034;SDS011;10178;48.034;9.800;2024-03-02T05:10:15;6.32;;;5.50;;
20034;SDS011;10178;48.034;9.800;2024-03-02T05:12:40;6.28;;;5.60;;
20034;SDS011;10178;48.034;9.800;2024-03-02T05:15:13;10.88;;;6.22;;
20034;SDS011;10178;48.034;9.800;2024-03-02T05:17:39;8.80;;;7.53;;
20034;SDS011;10178;48.034;9.800;2024-03-02T05:20:08;6.07;;;5.20;;
20034;SDS011;10178;48.034;9.800;2024-03-02T05:22:34;5.25;;;4.68;;
20034;SDS011;10178;48.034;9.800;2024-03-02T05:25:03;9.05;;;7.25;;
20034;SDS011;10178;48.034;9.800;2024-03-02T05:27:30;5.97;;;5.25;;
20034;SDS011;10178;48.034;9.800;2024-03-02T05:29:56;5.60;;;5.00;;
20034;SDS011;10178;48.034;9.800;2024-03-02T05:32:22;5.07;;;4.57;;
20034;SDS011;10178;48.034;9.800;2024-03-02T05:34:48;6.05;;;5.25;;
20034;SDS011;10178;48.034;9.800;2024-03-02T05:37:15;5.88;;;5.22;;
20034;SDS011;10178;48.034;9.800;2024-03-02T05:39:41;5.28;;;4.78;;
20034;SDS011;10178;48.034;9.800;2024-03-02T05:42:08;5.40;;;4.90;;
20034;SDS011;10178;48.034;9.800;2024-03-02T05:44:34;8.35;;;5.45;;
20034;SDS011;10178;48.034;9.800;2024-03-02T05:47:00;7.57;;;5.70;;
20034;SDS011;10178;48.034;9.800;2024-03-02T05:49:26;8.70;;;7.05;;
20034;SDS011;10178;48.034;9.800;2024-03-02T05:51:51;5.60;;;4.93;;
20034;SDS011;10178;48.034;9.800;2024-03-02T05:54:17;5.97;;;5.33;;
20034;SDS011;10178;48.034;9.800;2024-03-02T05:56:43;5.88;;;4.90;;
20034;SDS011;10178;48.034;9.800;2024-03-02T05:59:09;6.82;;;4.97;;
20034;SDS011;10178;48.034;9.800;2024-03-02T06:01:46;5.25;;;4.65;;
20034;SDS011;10178;48.034;9.800;2024-03-02T06:04:13;5.88;;;5.20;;
20034;SDS011;10178;48.034;9.800;2024-03-02T06:06:40;9.73;;;6.80;;
20034;SDS011;10178;48.034;9.800;2024-03-02T06:09:06;5.43;;;4.90;;
20034;SDS011;10178;48.034;9.800;2024-03-02T06:11:37;5.22;;;4.72;;
20034;SDS011;10178;48.034;9.800;2024-03-02T06:14:04;5.90;;;4.90;;
20034;SDS011;10178;48.034;9.800;2024-03-02T06:16:31;5.57;;;4.68;;
20034;SDS011;10178;48.034;9.800;2024-03-02T06:18:57;4.80;;;4.28;;
20034;SDS011;10178;48.034;9.800;2024-03-02T06:21:23;5.00;;;4.50;;
20034;SDS011;10178;48.034;9.800;2024-03-02T06:23:49;5.43;;;4.35;;
20034;SDS011;10178;48.034;9.800;2024-03-02T06:26:15;7.50;;;4.70;;
20034;SDS011;10178;48.034;9.800;2024-03-02T06:28:41;5.03;;;4.25;;
20034;SDS011;10178;48.034;9.800;2024-03-02T06:31:07;5.00;;;4.50;;
20034;SDS011;10178;48.034;9.800;2024-03-02T06:33:32;4.90;;;4.40;;
20034;SDS011;10178;48.034;9.800;2024-03-02T06:35:58;6.18;;;4.47;;
20034;SDS011;10178;48.034;9.800;2024-03-02T06:38:23;5.28;;;4.53;;
20034;SDS011;10178;48.034;9.800;2024-03-02T06:40:49;6.38;;;4.38;;
20034;SDS011;10178;48.034;9.800;2024-03-02T06:43:15;5.05;;;4.20;;
20034;SDS011;10178;48.034;9.800;2024-03-02T06:45:40;5.38;;;4.38;;
20034;SDS011;10178;48.034;9.800;2024-03-02T06:48:06;5.10;;;4.60;;
20034;SDS011;10178;48.034;9.800;2024-03-02T06:50:32;5.25;;;4.30;;
20034;SDS011;10178;48.034;9.800;2024-03-02T06:52:57;4.25;;;3.85;;
20034;SDS011;10178;48.034;9.800;2024-03-02T06:55:23;7.38;;;4.70;;
20034;SDS011;10178;48.034;9.800;2024-03-02T06:57:52;4.43;;;4.03;;
20034;SDS011;10178;48.034;9.800;2024-03-02T07:00:17;6.07;;;4.47;;
20034;SDS011;10178;48.034;9.800;2024-03-02T07:02:45;5.60;;;4.13;;
20034;SDS011;10178;48.034;9.800;2024-03-02T07:05:11;5.90;;;3.90;;
20034;SDS011;10178;48.034;9.800;2024-03-02T07:07:37;5.30;;;4.53;;
20034;SDS011;10178;48.034;9.800;2024-03-02T07:10:03;4.20;;;3.80;;
20034;SDS011;10178;48.034;9.800;2024-03-02T07:12:30;4.40;;;4.00;;
20034;SDS011;10178;48.034;9.800;2024-03-02T07:14:56;5.32;;;4.55;;
20034;SDS011;10178;48.034;9.800;2024-03-02T07:17:36;4.80;;;4.30;;
20034;SDS011;10178;48.034;9.800;2024-03-02T07:20:02;5.33;;;4.13;;
20034;SDS011;10178;48.034;9.800;2024-03-02T07:22:29;8.20;;;5.53;;
20034;SDS011;10178;48.034;9.800;2024-03-02T07:24:55;4.78;;;4.18;;
20034;SDS011;10178;48.034;9.800;2024-03-02T07:27:20;5.63;;;4.50;;
20034;SDS011;10178;48.034;9.800;2024-03-02T07:29:46;4.80;;;4.28;;
20034;SDS011;10178;48.034;9.800;2024-03-02T07:32:12;5.50;;;4.90;;
20034;SDS011;10178;48.034;9.800;2024-03-02T07:34:37;9.57;;;7.55;;
20034;SDS011;10178;48.034;9.800;2024-03-02T07:37:03;6.20;;;4.82;;
20034;SDS011;10178;48.034;9.800;2024-03-02T07:39:29;5.43;;;4.75;;
20034;SDS011;10178;48.034;9.800;2024-03-02T07:41:55;13.52;;;9.13;;
20034;SDS011;10178;48.034;9.800;2024-03-02T07:44:21;13.93;;;9.43;;
20034;SDS011;10178;48.034;9.800;2024-03-02T07:46:47;19.02;;;11.70;;
20034;SDS011;10178;48.034;9.800;2024-03-02T07:49:16;11.10;;;7.70;;
20034;SDS011;10178;48.034;9.800;2024-03-02T07:51:43;6.70;;;5.80;;
20034;SDS011;10178;48.034;9.800;2024-03-02T07:54:08;8.82;;;5.22;;
20034;SDS011;10178;48.034;9.800;2024-03-02T07:56:34;6.57;;;5.18;;
20034;SDS011;10178;48.034;9.800;2024-03-02T07:59:01;7.77;;;5.83;;
20034;SDS011;10178;48.034;9.800;2024-03-02T08:01:28;13.90;;;8.23;;
20034;SDS011;10178;48.034;9.800;2024-03-02T08:03:57;27.55;;;9.38;;
20034;SDS011;10178;48.034;9.800;2024-03-02T08:06:24;94.07;;;13.07;;
20034;SDS011;10178;48.034;9.800;2024-03-02T08:08:52;9.15;;;6.20;;
20034;SDS011;10178;48.034;9.800;2024-03-02T08:11:22;8.10;;;5.80;;
20034;SDS011;10178;48.034;9.800;2024-03-02T08:13:48;8.27;;;6.00;;
20034;SDS011;10178;48.034;9.800;2024-03-02T08:16:14;7.93;;;5.72;;
20034;SDS011;10178;48.034;9.800;2024-03-02T08:18:41;8.70;;;6.00;;
20034;SDS011;10178;48.034;9.800;2024-03-02T08:21:07;8.43;;;6.10;;
20034;SDS011;10178;48.034;9.800;2024-03-02T08:23:33;7.80;;;5.95;;
20034;SDS011;10178;48.034;9.800;2024-03-02T08:26:00;7.32;;;5.53;;
20034;SDS011;10178;48.034;9.800;2024-03-02T08:28:25;7.97;;;5.30;;
20034;SDS011;10178;48.034;9.800;2024-03-02T08:30:51;8.82;;;6.18;;
20034;SDS011;10178;48.034;9.800;2024-03-02T08:33:17;8.00;;;5.85;;
20034;SDS011;10178;48.034;9.800;2024-03-02T08:35:42;8.73;;;5.97;;
20034;SDS011;10178;48.034;9.800;2024-03-02T08:38:08;10.80;;;6.93;;
20034;SDS011;10178;48.034;9.800;2024-03-02T08:40:34;10.32;;;6.95;;
20034;SDS011;10178;48.034;9.800;2024-03-02T08:42:59;8.77;;;6.00;;
20034;SDS011;10178;48.034;9.800;2024-03-02T08:45:25;9.02;;;5.88;;
20034;SDS011;10178;48.034;9.800;2024-03-02T08:47:51;10.63;;;6.80;;
20034;SDS011;10178;48.034;9.800;2024-03-02T08:50:16;8.00;;;6.15;;
20034;SDS011;10178;48.034;9.800;2024-03-02T08:52:42;10.05;;;6.57;;
20034;SDS011;10178;48.034;9.800;2024-03-02T08:55:08;8.75;;;6.32;;
20034;SDS011;10178;48.034;9.800;2024-03-02T08:57:34;8.20;;;5.97;;
20034;SDS011;10178;48.034;9.800;2024-03-02T09:00:00;10.23;;;6.53;;
20034;SDS011;10178;48.034;9.800;2024-03-02T09:02:26;10.23;;;6.43;;
20034;SDS011;10178;48.034;9.800;2024-03-02T09:04:52;11.52;;;6.97;;
20034;SDS011;10178;48.034;9.800;2024-03-02T09:07:18;7.97;;;5.93;;
20034;SDS011;10178;48.034;9.800;2024-03-02T09:09:43;10.50;;;7.30;;
20034;SDS011;10178;48.034;9.800;2024-03-02T09:12:09;10.18;;;7.45;;
20034;SDS011;10178;48.034;9.800;2024-03-02T09:14:44;12.57;;;9.75;;
20034;SDS011;10178;48.034;9.800;2024-03-02T09:17:10;11.20;;;7.90;;
20034;SDS011;10178;48.034;9.800;2024-03-02T09:19:36;10.40;;;7.93;;
20034;SDS011;10178;48.034;9.800;2024-03-02T09:22:03;8.25;;;6.43;;
20034;SDS011;10178;48.034;9.800;2024-03-02T09:24:30;10.27;;;6.97;;
20034;SDS011;10178;48.034;9.800;2024-03-02T09:26:56;8.60;;;6.13;;
20034;SDS011;10178;48.034;9.800;2024-03-02T09:29:22;8.57;;;6.25;;
20034;SDS011;10178;48.034;9.800;2024-03-02T09:31:47;8.75;;;6.55;;
20034;SDS011;10178;48.034;9.800;2024-03-02T09:34:14;9.15;;;6.80;;
20034;SDS011;10178;48.034;9.800;2024-03-02T09:36:40;8.80;;;6.70;;
20034;SDS011;10178;48.034;9.800;2024-03-02T09:39:07;8.65;;;6.65;;
20034;SDS011;10178;48.034;9.800;2024-03-02T09:41:34;7.50;;;6.13;;
20034;SDS011;10178;48.034;9.800;2024-03-02T09:44:04;8.43;;;6.65;;
20034;SDS011;10178;48.034;9.800;2024-03-02T09:46:31;9.13;;;7.05;;
20034;SDS011;10178;48.034;9.800;2024-03-02T09:48:56;14.15;;;9.02;;
20034;SDS011;10178;48.034;9.800;2024-03-02T09:51:23;11.80;;;8.68;;
20034;SDS011;10178;48.034;9.800;2024-03-02T09:53:49;10.85;;;8.00;;
20034;SDS011;10178;48.034;9.800;2024-03-02T09:56:15;10.43;;;8.10;;
20034;SDS011;10178;48.034;9.800;2024-03-02T09:58:41;11.77;;;8.45;;
20034;SDS011;10178;48.034;9.800;2024-03-02T10:01:07;12.05;;;9.18;;
20034;SDS011;10178;48.034;9.800;2024-03-02T10:03:35;13.45;;;9.73;;
20034;SDS011;10178;48.034;9.800;2024-03-02T10:06:20;12.40;;;8.90;;
20034;SDS011;10178;48.034;9.800;2024-03-02T10:08:50;10.75;;;8.10;;
20034;SDS011;10178;48.034;9.800;2024-03-02T10:11:25;9.02;;;7.20;;
20034;SDS011;10178;48.034;9.800;2024-03-02T10:13:55;9.60;;;7.38;;
20034;SDS011;10178;48.034;9.800;2024-03-02T10:16:30;10.80;;;7.53;;
20034;SDS011;10178;48.034;9.800;2024-03-02T10:18:55;10.85;;;8.70;;
20034;SDS011;10178;48.034;9.800;2024-03-02T10:21:21;9.07;;;7.38;;
20034;SDS011;10178;48.034;9.800;2024-03-02T10:23:49;8.20;;;7.00;;
20034;SDS011;10178;48.034;9.800;2024-03-02T10:26:18;9.82;;;8.10;;
20034;SDS011;10178;48.034;9.800;2024-03-02T10:28:46;9.82;;;7.57;;
20034;SDS011;10178;48.034;9.800;2024-03-02T10:31:17;8.20;;;6.55;;
20034;SDS011;10178;48.034;9.800;2024-03-02T10:33:42;9.88;;;7.60;;
20034;SDS011;10178;48.034;9.800;2024-03-02T10:36:09;10.00;;;6.88;;
20034;SDS011;10178;48.034;9.800;2024-03-02T10:38:34;8.68;;;7.10;;
20034;SDS011;10178;48.034;9.800;2024-03-02T10:41:00;10.25;;;7.40;;
20034;SDS011;10178;48.034;9.800;2024-03-02T10:43:28;7.72;;;6.70;;
20034;SDS011;10178;48.034;9.800;2024-03-02T10:45:54;7.75;;;6.40;;
20034;SDS011;10178;48.034;9.800;2024-03-02T10:48:22;11.35;;;7.13;;
20034;SDS011;10178;48.034;9.800;2024-03-02T10:50:50;9.23;;;6.90;;
20034;SDS011;10178;48.034;9.800;2024-03-02T10:53:16;9.95;;;7.15;;
20034;SDS011;10178;48.034;9.800;2024-03-02T10:55:42;9.30;;;6.85;;
20034;SDS011;10178;48.034;9.800;2024-03-02T10:58:07;9.73;;;6.45;;
20034;SDS011;10178;48.034;9.800;2024-03-02T11:00:37;8.32;;;6.13;;
20034;SDS011;10178;48.034;9.800;2024-03-02T11:03:07;9.25;;;6.93;;
20034;SDS011;10178;48.034;9.800;2024-03-02T11:05:36;7.20;;;5.68;;
20034;SDS011;10178;48.034;9.800;2024-03-02T11:08:07;9.43;;;5.90;;
20034;SDS011;10178;48.034;9.800;2024-03-02T11:10:38;7.80;;;6.05;;
20034;SDS011;10178;48.034;9.800;2024-03-02T11:13:11;6.40;;;4.55;;
20034;SDS011;10178;48.034;9.800;2024-03-02T11:15:37;4.55;;;4.15;;
20034;SDS011;10178;48.034;9.800;2024-03-02T11:18:08;6.57;;;4.80;;
20034;SDS011;10178;48.034;9.800;2024-03-02T11:20:39;7.85;;;5.15;;
20034;SDS011;10178;48.034;9.800;2024-03-02T11:23:06;6.47;;;4.78;;
20034;SDS011;10178;48.034;9.800;2024-03-02T11:25:33;5.63;;;4.47;;
20034;SDS011;10178;48.034;9.800;2024-03-02T11:27:59;5.63;;;4.40;;
20034;SDS011;10178;48.034;9.800;2024-03-02T11:32:58;5.47;;;4.07;;
20034;SDS011;10178;48.034;9.800;2024-03-02T11:35:37;5.13;;;3.80;;
20034;SDS011;10178;48.034;9.800;2024-03-02T11:38:06;5.20;;;3.67;;
20034;SDS011;10178;48.034;9.800;2024-03-02T11:40:32;4.78;;;3.92;;
20034;SDS011;10178;48.034;9.800;2024-03-02T11:43:01;4.60;;;3.63;;
20034;SDS011;10178;48.034;9.800;2024-03-02T11:45:27;5.05;;;3.90;;
20034;SDS011;10178;48.034;9.800;2024-03-02T11:47:57;4.75;;;3.53;;
20034;SDS011;10178;48.034;9.800;2024-03-02T11:52:55;4.72;;;3.72;;
20034;SDS011;10178;48.034;9.800;2024-03-02T11:55:21;4.05;;;3.47;;
20034;SDS011;10178;48.034;9.800;2024-03-02T11:57:47;6.18;;;3.30;;
20034;SDS011;10178;48.034;9.800;2024-03-02T12:00:18;3.58;;;3.10;;
20034;SDS011;10178;48.034;9.800;2024-03-02T12:05:37;3.13;;;2.83;;
20034;SDS011;10178;48.034;9.800;2024-03-02T12:08:06;6.00;;;3.40;;
20034;SDS011;10178;48.034;9.800;2024-03-02T12:10:32;4.57;;;3.35;;
20034;SDS011;10178;48.034;9.800;2024-03-02T12:13:02;6.13;;;3.10;;
20034;SDS011;10178;48.034;9.800;2024-03-02T12:15:30;3.38;;;3.08;;
20034;SDS011;10178;48.034;9.800;2024-03-02T12:17:57;2.88;;;2.35;;
20034;SDS011;10178;48.034;9.800;2024-03-02T12:20:25;2.67;;;2.47;;
20034;SDS011;10178;48.034;9.800;2024-03-02T12:22:52;3.08;;;2.78;;
20034;SDS011;10178;48.034;9.800;2024-03-02T12:25:22;3.33;;;2.72;;
20034;SDS011;10178;48.034;9.800;2024-03-02T12:27:49;3.53;;;2.92;;
20034;SDS011;10178;48.034;9.800;2024-03-02T12:30:16;3.08;;;2.63;;
20034;SDS011;10178;48.034;9.800;2024-03-02T12:32:42;3.38;;;2.65;;
20034;SDS011;10178;48.034;9.800;2024-03-02T12:35:09;4.30;;;3.08;;
20034;SDS011;10178;48.034;9.800;2024-03-02T12:37:43;4.25;;;2.65;;
20034;SDS011;10178;48.034;9.800;2024-03-02T12:40:13;2.60;;;2.40;;
20034;SDS011;10178;48.034;9.800;2024-03-02T12:42:39;6.72;;;2.65;;
20034;SDS011;10178;48.034;9.800;2024-03-02T12:45:06;3.55;;;2.42;;
20034;SDS011;10178;48.034;9.800;2024-03-02T12:47:33;3.58;;;2.90;;
20034;SDS011;10178;48.034;9.800;2024-03-02T12:50:03;4.00;;;2.60;;
20034;SDS011;10178;48.034;9.800;2024-03-02T12:52:29;2.80;;;2.28;;
20034;SDS011;10178;48.034;9.800;2024-03-02T12:54:57;4.00;;;2.50;;
20034;SDS011;10178;48.034;9.800;2024-03-02T12:57:27;1.90;;;1.80;;
20034;SDS011;10178;48.034;9.800;2024-03-02T13:00:00;2.13;;;1.90;;
20034;SDS011;10178;48.034;9.800;2024-03-02T13:02:34;3.45;;;1.85;;
20034;SDS011;10178;48.034;9.800;2024-03-02T13:05:00;2.50;;;2.30;;
20034;SDS011;10178;48.034;9.800;2024-03-02T13:07:26;2.55;;;2.30;;
20034;SDS011;10178;48.034;9.800;2024-03-02T13:09:55;13.55;;;5.10;;
20034;SDS011;10178;48.034;9.800;2024-03-02T13:12:22;3.40;;;2.50;;
20034;SDS011;10178;48.034;9.800;2024-03-02T13:14:49;2.78;;;2.30;;
20034;SDS011;10178;48.034;9.800;2024-03-02T13:17:17;1.83;;;1.50;;
20034;SDS011;10178;48.034;9.800;2024-03-02T13:22:19;1.98;;;1.77;;
20034;SDS011;10178;48.034;9.800;2024-03-02T13:24:45;2.65;;;2.15;;
20034;SDS011;10178;48.034;9.800;2024-03-02T13:27:10;3.25;;;2.53;;
20034;SDS011;10178;48.034;9.800;2024-03-02T13:29:37;2.78;;;2.35;;
20034;SDS011;10178;48.034;9.800;2024-03-02T13:32:03;3.92;;;2.28;;
20034;SDS011;10178;48.034;9.800;2024-03-02T13:34:29;2.28;;;2.05;;
20034;SDS011;10178;48.034;9.800;2024-03-02T13:36:54;2.60;;;2.40;;
20034;SDS011;10178;48.034;9.800;2024-03-02T13:39:20;2.67;;;2.25;;
20034;SDS011;10178;48.034;9.800;2024-03-02T13:41:45;2.85;;;2.30;;
20034;SDS011;10178;48.034;9.800;2024-03-02T13:44:17;3.40;;;2.55;;
20034;SDS011;10178;48.034;9.800;2024-03-02T13:46:46;2.97;;;2.30;;
20034;SDS011;10178;48.034;9.800;2024-03-02T13:49:13;3.05;;;2.63;;
20034;SDS011;10178;48.034;9.800;2024-03-02T13:51:39;2.90;;;2.60;;
20034;SDS011;10178;48.034;9.800;2024-03-02T13:54:05;4.18;;;2.40;;
20034;SDS011;10178;48.034;9.800;2024-03-02T13:56:31;2.67;;;2.47;;
20034;SDS011;10178;48.034;9.800;2024-03-02T13:58:57;3.58;;;2.25;;
20034;SDS011;10178;48.034;9.800;2024-03-02T14:01:23;2.25;;;2.00;;
20034;SDS011;10178;48.034;9.800;2024-03-02T14:03:49;3.13;;;2.75;;
20034;SDS011;10178;48.034;9.800;2024-03-02T14:06:15;2.97;;;2.65;;
20034;SDS011;10178;48.034;9.800;2024-03-02T14:08:41;3.15;;;2.78;;
20034;SDS011;10178;48.034;9.800;2024-03-02T14:11:09;2.50;;;2.30;;
20034;SDS011;10178;48.034;9.800;2024-03-02T14:13:40;5.22;;;2.55;;
20034;SDS011;10178;48.034;9.800;2024-03-02T14:16:06;3.22;;;2.45;;
20034;SDS011;10178;48.034;9.800;2024-03-02T14:18:32;3.58;;;2.50;;
20034;SDS011;10178;48.034;9.800;2024-03-02T14:20:57;4.60;;;2.70;;
20034;SDS011;10178;48.034;9.800;2024-03-02T14:23:23;4.75;;;2.25;;
20034;SDS011;10178;48.034;9.800;2024-03-02T14:25:50;2.47;;;2.08;;
20034;SDS011;10178;48.034;9.800;2024-03-02T14:28:16;2.53;;;2.33;;
20034;SDS011;10178;48.034;9.800;2024-03-02T14:30:42;3.33;;;2.35;;
20034;SDS011;10178;48.034;9.800;2024-03-02T14:33:07;2.00;;;1.65;;
20034;SDS011;10178;48.034;9.800;2024-03-02T14:35:33;3.38;;;1.90;;
20034;SDS011;10178;48.034;9.800;2024-03-02T14:37:59;2.30;;;1.83;;
20034;SDS011;10178;48.034;9.800;2024-03-02T14:40:24;4.10;;;1.90;;
20034;SDS011;10178;48.034;9.800;2024-03-02T14:42:52;2.20;;;2.00;;
20034;SDS011;10178;48.034;9.800;2024-03-02T14:45:18;3.30;;;1.77;;
20034;SDS011;10178;48.034;9.800;2024-03-02T14:47:43;3.22;;;2.22;;
20034;SDS011;10178;48.034;9.800;2024-03-02T14:50:09;2.03;;;1.88;;
20034;SDS011;10178;48.034;9.800;2024-03-02T14:52:36;2.33;;;1.75;;
20034;SDS011;10178;48.034;9.800;2024-03-02T14:55:01;2.50;;;1.95;;
20034;SDS011;10178;48.034;9.800;2024-03-02T14:57:32;2.80;;;2.15;;